sensor_id;sensor_type;location;lat;lon;timestamp;P1;durP1;ratioP1;P2;durP2;ratioP2
70102;SDS011;57470;50.034;15.256;2023-12-20T00:00:04;3.67;;;0.87;;
70102;SDS011;57470;50.034;15.256;2023-12-20T00:02:30;2.90;;;0.63;;
70102;SDS011;57470;50.034;15.256;2023-12-20T00:04:56;3.33;;;0.80;;
70102;SDS011;57470;50.034;15.256;2023-12-20T00:07:21;4.80;;;0.87;;
70102;SDS011;57470;50.034;15.256;2023-12-20T00:09:46;2.57;;;0.67;;
70102;SDS011;57470;50.034;15.256;2023-12-20T00:12:12;3.33;;;1.13;;
70102;SDS011;57470;50.034;15.256;2023-12-20T00:14:37;3.33;;;1.10;;
70102;SDS011;57470;50.034;15.256;2023-12-20T00:17:03;4.47;;;1.70;;
70102;SDS011;57470;50.034;15.256;2023-12-20T00:19:28;3.37;;;1.07;;
70102;SDS011;57470;50.034;15.256;2023-12-20T00:21:53;4.93;;;1.20;;
70102;SDS011;57470;50.034;15.256;2023-12-20T00:24:19;7.13;;;1.25;;
70102;SDS011;57470;50.034;15.256;2023-12-20T00:26:45;3.07;;;0.60;;
70102;SDS011;57470;50.034;15.256;2023-12-20T00:29:10;3.20;;;0.88;;
70102;SDS011;57470;50.034;15.256;2023-12-20T00:31:36;4.00;;;1.10;;
70102;SDS011;57470;50.034;15.256;2023-12-20T00:34:01;2.83;;;0.87;;
70102;SDS011;57470;50.034;15.256;2023-12-20T00:36:27;6.20;;;1.23;;
70102;SDS011;57470;50.034;15.256;2023-12-20T00:38:52;3.50;;;0.80;;
70102;SDS011;57470;50.034;15.256;2023-12-20T00:41:17;4.77;;;1.47;;
70102;SDS011;57470;50.034;15.256;2023-12-20T00:43:43;4.53;;;1.67;;
70102;SDS011;57470;50.034;15.256;2023-12-20T00:46:09;4.00;;;1.10;;
70102;SDS011;57470;50.034;15.256;2023-12-20T00:48:34;10.83;;;1.83;;
70102;SDS011;57470;50.034;15.256;2023-12-20T00:51:00;3.20;;;0.80;;
70102;SDS011;57470;50.034;15.256;2023-12-20T00:53:25;7.87;;;1.23;;
70102;SDS011;57470;50.034;15.256;2023-12-20T00:55:51;3.53;;;0.93;;
70102;SDS011;57470;50.034;15.256;2023-12-20T00:58:16;4.80;;;0.87;;
70102;SDS011;57470;50.034;15.256;2023-12-20T01:00:42;4.72;;;1.23;;
70102;SDS011;57470;50.034;15.256;2023-12-20T01:03:08;5.22;;;1.55;;
70102;SDS011;57470;50.034;15.256;2023-12-20T01:05:34;4.93;;;1.60;;
70102;SDS011;57470;50.034;15.256;2023-12-20T01:07:59;4.10;;;1.20;;
70102;SDS011;57470;50.034;15.256;2023-12-20T01:10:25;4.18;;;1.08;;
70102;SDS011;57470;50.034;15.256;2023-12-20T01:12:53;7.50;;;1.23;;
70102;SDS011;57470;50.034;15.256;2023-12-20T01:15:18;3.70;;;1.17;;
70102;SDS011;57470;50.034;15.256;2023-12-20T01:17:44;4.47;;;1.37;;
70102;SDS011;57470;50.034;15.256;2023-12-20T01:20:09;3.80;;;1.20;;
70102;SDS011;57470;50.034;15.256;2023-12-20T01:22:35;4.25;;;0.93;;
70102;SDS011;57470;50.034;15.256;2023-12-20T01:25:00;3.40;;;1.10;;
70102;SDS011;57470;50.034;15.256;2023-12-20T01:27:27;4.10;;;1.17;;
70102;SDS011;57470;50.034;15.256;2023-12-20T01:29:52;5.03;;;1.00;;
70102;SDS011;57470;50.034;15.256;2023-12-20T01:32:18;3.67;;;1.40;;
70102;SDS011;57470;50.034;15.256;2023-12-20T01:34:43;5.50;;;1.53;;
70102;SDS011;57470;50.034;15.256;2023-12-20T01:37:08;2.53;;;0.67;;
70102;SDS011;57470;50.034;15.256;2023-12-20T01:39:34;4.57;;;1.63;;
70102;SDS011;57470;50.034;15.256;2023-12-20T01:41:59;3.37;;;0.90;;
70102;SDS011;57470;50.034;15.256;2023-12-20T01:44:25;4.37;;;0.83;;
70102;SDS011;57470;50.034;15.256;2023-12-20T01:46:50;16.37;;;1.47;;
70102;SDS011;57470;50.034;15.256;2023-12-20T01:49:16;6.70;;;1.25;;
70102;SDS011;57470;50.034;15.256;2023-12-20T01:51:41;3.43;;;0.80;;
70102;SDS011;57470;50.034;15.256;2023-12-20T01:54:08;3.03;;;0.93;;
70102;SDS011;57470;50.034;15.256;2023-12-20T01:56:34;4.73;;;1.50;;
70102;SDS011;57470;50.034;15.256;2023-12-20T01:58:59;4.60;;;1.47;;
70102;SDS011;57470;50.034;15.256;2023-12-20T02:01:25;2.85;;;0.70;;
70102;SDS011;57470;50.034;15.256;2023-12-20T02:03:53;3.53;;;0.90;;
70102;SDS011;57470;50.034;15.256;2023-12-20T02:06:19;2.60;;;0.50;;
70102;SDS011;57470;50.034;15.256;2023-12-20T02:08:47;2.70;;;0.75;;
70102;SDS011;57470;50.034;15.256;2023-12-20T02:11:14;2.70;;;0.80;;
70102;SDS011;57470;50.034;15.256;2023-12-20T02:13:40;4.35;;;0.85;;
70102;SDS011;57470;50.034;15.256;2023-12-20T02:16:05;4.40;;;0.80;;
70102;SDS011;57470;50.034;15.256;2023-12-20T02:18:32;6.10;;;1.15;;
70102;SDS011;57470;50.034;15.256;2023-12-20T02:20:58;3.73;;;0.93;;
70102;SDS011;57470;50.034;15.256;2023-12-20T02:23:24;3.47;;;1.00;;
70102;SDS011;57470;50.034;15.256;2023-12-20T02:25:51;3.35;;;1.00;;
70102;SDS011;57470;50.034;15.256;2023-12-20T02:28:18;2.90;;;0.80;;
70102;SDS011;57470;50.034;15.256;2023-12-20T02:30:45;3.58;;;1.30;;
70102;SDS011;57470;50.034;15.256;2023-12-20T02:33:12;4.95;;;0.70;;
70102;SDS011;57470;50.034;15.256;2023-12-20T02:35:40;2.70;;;0.85;;
70102;SDS011;57470;50.034;15.256;2023-12-20T02:38:07;2.83;;;0.85;;
70102;SDS011;57470;50.034;15.256;2023-12-20T02:40:34;4.95;;;0.80;;
70102;SDS011;57470;50.034;15.256;2023-12-20T02:43:00;4.72;;;1.00;;
70102;SDS011;57470;50.034;15.256;2023-12-20T02:45:27;2.53;;;0.73;;
70102;SDS011;57470;50.034;15.256;2023-12-20T02:47:55;3.30;;;0.90;;
70102;SDS011;57470;50.034;15.256;2023-12-20T02:50:22;10.57;;;1.05;;
70102;SDS011;57470;50.034;15.256;2023-12-20T02:52:48;3.67;;;0.95;;
70102;SDS011;57470;50.034;15.256;2023-12-20T02:55:15;4.15;;;1.20;;
70102;SDS011;57470;50.034;15.256;2023-12-20T02:57:41;13.55;;;1.13;;
70102;SDS011;57470;50.034;15.256;2023-12-20T03:00:08;3.40;;;1.08;;
70102;SDS011;57470;50.034;15.256;2023-12-20T03:02:36;5.50;;;1.30;;
70102;SDS011;57470;50.034;15.256;2023-12-20T03:05:03;4.97;;;1.65;;
70102;SDS011;57470;50.034;15.256;2023-12-20T03:07:30;4.43;;;1.00;;
70102;SDS011;57470;50.034;15.256;2023-12-20T03:09:56;7.75;;;1.27;;
70102;SDS011;57470;50.034;15.256;2023-12-20T03:12:23;3.92;;;1.23;;
70102;SDS011;57470;50.034;15.256;2023-12-20T03:14:50;4.35;;;2.13;;
70102;SDS011;57470;50.034;15.256;2023-12-20T03:17:17;3.47;;;1.00;;
70102;SDS011;57470;50.034;15.256;2023-12-20T03:19:42;3.30;;;0.67;;
70102;SDS011;57470;50.034;15.256;2023-12-20T03:22:08;3.33;;;0.70;;
70102;SDS011;57470;50.034;15.256;2023-12-20T03:24:33;2.53;;;0.60;;
70102;SDS011;57470;50.034;15.256;2023-12-20T03:26:58;3.93;;;1.03;;
70102;SDS011;57470;50.034;15.256;2023-12-20T03:29:24;2.17;;;0.60;;
70102;SDS011;57470;50.034;15.256;2023-12-20T03:31:49;3.93;;;1.03;;
70102;SDS011;57470;50.034;15.256;2023-12-20T03:34:15;3.38;;;0.75;;
70102;SDS011;57470;50.034;15.256;2023-12-20T03:36:40;2.03;;;0.40;;
70102;SDS011;57470;50.034;15.256;2023-12-20T03:39:06;3.83;;;0.80;;
70102;SDS011;57470;50.034;15.256;2023-12-20T03:41:31;2.65;;;0.68;;
70102;SDS011;57470;50.034;15.256;2023-12-20T03:43:57;2.17;;;0.60;;
70102;SDS011;57470;50.034;15.256;2023-12-20T03:46:22;3.13;;;0.87;;
70102;SDS011;57470;50.034;15.256;2023-12-20T03:48:47;2.70;;;0.73;;
70102;SDS011;57470;50.034;15.256;2023-12-20T03:51:13;3.63;;;0.57;;
70102;SDS011;57470;50.034;15.256;2023-12-20T03:53:38;2.60;;;0.50;;
70102;SDS011;57470;50.034;15.256;2023-12-20T03:56:05;2.70;;;0.80;;
70102;SDS011;57470;50.034;15.256;2023-12-20T03:58:31;3.58;;;0.98;;
70102;SDS011;57470;50.034;15.256;2023-12-20T04:00:56;3.47;;;0.95;;
70102;SDS011;57470;50.034;15.256;2023-12-20T04:03:22;2.50;;;0.80;;
70102;SDS011;57470;50.034;15.256;2023-12-20T04:05:47;2.03;;;0.43;;
70102;SDS011;57470;50.034;15.256;2023-12-20T04:08:12;2.20;;;0.67;;
70102;SDS011;57470;50.034;15.256;2023-12-20T04:10:38;2.97;;;0.70;;
70102;SDS011;57470;50.034;15.256;2023-12-20T04:13:03;2.40;;;0.45;;
70102;SDS011;57470;50.034;15.256;2023-12-20T04:15:29;3.22;;;1.00;;
70102;SDS011;57470;50.034;15.256;2023-12-20T04:17:54;2.35;;;0.50;;
70102;SDS011;57470;50.034;15.256;2023-12-20T04:20:20;2.85;;;0.70;;
70102;SDS011;57470;50.034;15.256;2023-12-20T04:22:45;2.77;;;0.90;;
70102;SDS011;57470;50.034;15.256;2023-12-20T04:25:11;3.17;;;0.63;;
70102;SDS011;57470;50.034;15.256;2023-12-20T04:27:36;1.80;;;0.40;;
70102;SDS011;57470;50.034;15.256;2023-12-20T04:30:01;2.50;;;0.57;;
70102;SDS011;57470;50.034;15.256;2023-12-20T04:32:27;2.50;;;0.80;;
70102;SDS011;57470;50.034;15.256;2023-12-20T04:34:52;2.17;;;0.40;;
70102;SDS011;57470;50.034;15.256;2023-12-20T04:37:18;2.23;;;0.50;;
70102;SDS011;57470;50.034;15.256;2023-12-20T04:39:43;2.30;;;0.50;;
70102;SDS011;57470;50.034;15.256;2023-12-20T04:42:09;2.05;;;0.43;;
70102;SDS011;57470;50.034;15.256;2023-12-20T04:44:34;2.23;;;0.30;;
70102;SDS011;57470;50.034;15.256;2023-12-20T04:46:59;2.47;;;0.67;;
70102;SDS011;57470;50.034;15.256;2023-12-20T04:49:25;4.53;;;1.00;;
70102;SDS011;57470;50.034;15.256;2023-12-20T04:51:50;3.27;;;1.10;;
70102;SDS011;57470;50.034;15.256;2023-12-20T04:54:16;3.13;;;0.60;;
70102;SDS011;57470;50.034;15.256;2023-12-20T04:56:41;2.23;;;0.30;;
70102;SDS011;57470;50.034;15.256;2023-12-20T04:59:07;3.27;;;0.80;;
70102;SDS011;57470;50.034;15.256;2023-12-20T05:01:32;2.20;;;0.45;;
70102;SDS011;57470;50.034;15.256;2023-12-20T05:03:58;3.27;;;0.90;;
70102;SDS011;57470;50.034;15.256;2023-12-20T05:06:23;4.03;;;1.33;;
70102;SDS011;57470;50.034;15.256;2023-12-20T05:08:49;4.07;;;1.48;;
70102;SDS011;57470;50.034;15.256;2023-12-20T05:11:15;3.80;;;0.87;;
70102;SDS011;57470;50.034;15.256;2023-12-20T05:13:41;2.15;;;0.47;;
70102;SDS011;57470;50.034;15.256;2023-12-20T05:16:06;2.40;;;0.53;;
70102;SDS011;57470;50.034;15.256;2023-12-20T05:18:32;4.00;;;1.10;;
70102;SDS011;57470;50.034;15.256;2023-12-20T05:20:57;3.58;;;0.90;;
70102;SDS011;57470;50.034;15.256;2023-12-20T05:23:23;3.13;;;0.93;;
70102;SDS011;57470;50.034;15.256;2023-12-20T05:25:48;3.30;;;0.77;;
70102;SDS011;57470;50.034;15.256;2023-12-20T05:28:14;5.28;;;1.00;;
70102;SDS011;57470;50.034;15.256;2023-12-20T05:30:40;2.53;;;0.70;;
70102;SDS011;57470;50.034;15.256;2023-12-20T05:33:05;4.38;;;1.30;;
70102;SDS011;57470;50.034;15.256;2023-12-20T05:35:31;2.30;;;0.50;;
70102;SDS011;57470;50.034;15.256;2023-12-20T05:37:56;3.67;;;1.07;;
70102;SDS011;57470;50.034;15.256;2023-12-20T05:40:21;6.07;;;2.53;;
70102;SDS011;57470;50.034;15.256;2023-12-20T05:42:47;6.30;;;2.47;;
70102;SDS011;57470;50.034;15.256;2023-12-20T05:45:14;7.13;;;2.65;;
70102;SDS011;57470;50.034;15.256;2023-12-20T05:47:39;3.35;;;1.25;;
70102;SDS011;57470;50.034;15.256;2023-12-20T05:50:05;6.57;;;2.73;;
70102;SDS011;57470;50.034;15.256;2023-12-20T05:52:31;7.68;;;2.08;;
70102;SDS011;57470;50.034;15.256;2023-12-20T05:54:56;4.43;;;1.55;;
70102;SDS011;57470;50.034;15.256;2023-12-20T05:57:26;3.40;;;0.90;;
70102;SDS011;57470;50.034;15.256;2023-12-20T05:59:52;4.05;;;1.30;;
70102;SDS011;57470;50.034;15.256;2023-12-20T06:02:17;3.25;;;1.02;;
70102;SDS011;57470;50.034;15.256;2023-12-20T06:04:43;2.40;;;0.93;;
70102;SDS011;57470;50.034;15.256;2023-12-20T06:07:11;4.03;;;1.57;;
70102;SDS011;57470;50.034;15.256;2023-12-20T06:09:37;3.72;;;1.15;;
70102;SDS011;57470;50.034;15.256;2023-12-20T06:12:02;3.83;;;1.17;;
70102;SDS011;57470;50.034;15.256;2023-12-20T06:14:27;3.00;;;0.98;;
70102;SDS011;57470;50.034;15.256;2023-12-20T06:16:53;2.70;;;0.80;;
70102;SDS011;57470;50.034;15.256;2023-12-20T06:19:18;3.50;;;1.40;;
70102;SDS011;57470;50.034;15.256;2023-12-20T06:21:43;3.57;;;1.23;;
70102;SDS011;57470;50.034;15.256;2023-12-20T06:24:09;3.07;;;0.77;;
70102;SDS011;57470;50.034;15.256;2023-12-20T06:26:36;2.40;;;0.73;;
70102;SDS011;57470;50.034;15.256;2023-12-20T06:29:02;3.42;;;0.75;;
70102;SDS011;57470;50.034;15.256;2023-12-20T06:31:28;2.13;;;0.60;;
70102;SDS011;57470;50.034;15.256;2023-12-20T06:33:54;2.42;;;0.80;;
70102;SDS011;57470;50.034;15.256;2023-12-20T06:36:22;1.90;;;0.60;;
70102;SDS011;57470;50.034;15.256;2023-12-20T06:38:49;2.80;;;0.80;;
70102;SDS011;57470;50.034;15.256;2023-12-20T06:41:15;2.55;;;0.75;;
70102;SDS011;57470;50.034;15.256;2023-12-20T06:43:40;3.87;;;0.80;;
70102;SDS011;57470;50.034;15.256;2023-12-20T06:46:06;2.73;;;0.60;;
70102;SDS011;57470;50.034;15.256;2023-12-20T06:48:31;5.75;;;1.15;;
70102;SDS011;57470;50.034;15.256;2023-12-20T06:50:59;2.80;;;0.50;;
70102;SDS011;57470;50.034;15.256;2023-12-20T06:53:25;2.72;;;0.80;;
70102;SDS011;57470;50.034;15.256;2023-12-20T06:55:50;2.23;;;0.57;;
70102;SDS011;57470;50.034;15.256;2023-12-20T06:58:16;2.33;;;0.60;;
70102;SDS011;57470;50.034;15.256;2023-12-20T07:00:41;2.47;;;0.50;;
70102;SDS011;57470;50.034;15.256;2023-12-20T07:03:07;1.75;;;0.40;;
70102;SDS011;57470;50.034;15.256;2023-12-20T07:05:34;3.55;;;0.90;;
70102;SDS011;57470;50.034;15.256;2023-12-20T07:07:59;2.60;;;0.70;;
70102;SDS011;57470;50.034;15.256;2023-12-20T07:10:24;2.10;;;0.37;;
70102;SDS011;57470;50.034;15.256;2023-12-20T07:12:50;2.23;;;0.60;;
70102;SDS011;57470;50.034;15.256;2023-12-20T07:15:16;2.45;;;0.70;;
70102;SDS011;57470;50.034;15.256;2023-12-20T07:17:42;2.00;;;0.40;;
70102;SDS011;57470;50.034;15.256;2023-12-20T07:20:08;2.20;;;0.47;;
70102;SDS011;57470;50.034;15.256;2023-12-20T07:22:36;1.70;;;0.38;;
70102;SDS011;57470;50.034;15.256;2023-12-20T07:25:01;2.33;;;0.40;;
70102;SDS011;57470;50.034;15.256;2023-12-20T07:27:27;3.00;;;0.93;;
70102;SDS011;57470;50.034;15.256;2023-12-20T07:29:52;2.03;;;0.40;;
70102;SDS011;57470;50.034;15.256;2023-12-20T07:32:18;4.27;;;1.83;;
70102;SDS011;57470;50.034;15.256;2023-12-20T07:34:43;5.60;;;2.67;;
70102;SDS011;57470;50.034;15.256;2023-12-20T07:37:09;7.60;;;2.67;;
70102;SDS011;57470;50.034;15.256;2023-12-20T07:39:37;3.40;;;1.07;;
70102;SDS011;57470;50.034;15.256;2023-12-20T07:42:02;2.58;;;0.63;;
70102;SDS011;57470;50.034;15.256;2023-12-20T07:44:28;2.53;;;0.50;;
70102;SDS011;57470;50.034;15.256;2023-12-20T07:46:53;2.28;;;0.52;;
70102;SDS011;57470;50.034;15.256;2023-12-20T07:49:19;2.90;;;0.85;;
70102;SDS011;57470;50.034;15.256;2023-12-20T07:51:44;2.03;;;0.53;;
70102;SDS011;57470;50.034;15.256;2023-12-20T07:54:10;2.73;;;0.77;;
70102;SDS011;57470;50.034;15.256;2023-12-20T07:56:35;1.65;;;0.30;;
70102;SDS011;57470;50.034;15.256;2023-12-20T07:59:01;1.93;;;0.40;;
70102;SDS011;57470;50.034;15.256;2023-12-20T08:01:26;2.90;;;0.80;;
70102;SDS011;57470;50.034;15.256;2023-12-20T08:03:52;2.50;;;0.37;;
70102;SDS011;57470;50.034;15.256;2023-12-20T08:06:17;2.55;;;0.60;;
70102;SDS011;57470;50.034;15.256;2023-12-20T08:08:43;1.50;;;0.20;;
70102;SDS011;57470;50.034;15.256;2023-12-20T08:11:08;1.83;;;0.43;;
70102;SDS011;57470;50.034;15.256;2023-12-20T08:13:33;3.37;;;1.00;;
70102;SDS011;57470;50.034;15.256;2023-12-20T08:15:59;1.87;;;0.33;;
70102;SDS011;57470;50.034;15.256;2023-12-20T08:18:24;2.67;;;0.88;;
70102;SDS011;57470;50.034;15.256;2023-12-20T08:20:50;1.77;;;0.40;;
70102;SDS011;57470;50.034;15.256;2023-12-20T08:23:17;4.22;;;0.57;;
70102;SDS011;57470;50.034;15.256;2023-12-20T08:25:44;2.63;;;0.60;;
70102;SDS011;57470;50.034;15.256;2023-12-20T08:28:09;3.90;;;0.70;;
70102;SDS011;57470;50.034;15.256;2023-12-20T08:30:35;9.97;;;1.43;;
70102;SDS011;57470;50.034;15.256;2023-12-20T08:33:01;5.20;;;2.00;;
70102;SDS011;57470;50.034;15.256;2023-12-20T08:35:27;2.60;;;0.57;;
70102;SDS011;57470;50.034;15.256;2023-12-20T08:37:52;2.15;;;0.55;;
70102;SDS011;57470;50.034;15.256;2023-12-20T08:40:18;3.50;;;1.30;;
70102;SDS011;57470;50.034;15.256;2023-12-20T08:42:43;2.30;;;0.60;;
70102;SDS011;57470;50.034;15.256;2023-12-20T08:45:09;1.87;;;0.40;;
70102;SDS011;57470;50.034;15.256;2023-12-20T08:47:35;2.25;;;0.50;;
70102;SDS011;57470;50.034;15.256;2023-12-20T08:50:00;1.57;;;0.20;;
70102;SDS011;57470;50.034;15.256;2023-12-20T08:52:26;2.13;;;0.60;;
70102;SDS011;57470;50.034;15.256;2023-12-20T08:54:52;2.47;;;0.50;;
70102;SDS011;57470;50.034;15.256;2023-12-20T08:57:21;3.80;;;1.48;;
70102;SDS011;57470;50.034;15.256;2023-12-20T08:59:48;3.35;;;0.60;;
70102;SDS011;57470;50.034;15.256;2023-12-20T09:02:14;2.75;;;0.75;;
70102;SDS011;57470;50.034;15.256;2023-12-20T09:04:40;2.93;;;0.70;;
70102;SDS011;57470;50.034;15.256;2023-12-20T09:07:05;2.90;;;0.77;;
70102;SDS011;57470;50.034;15.256;2023-12-20T09:09:32;3.00;;;0.50;;
70102;SDS011;57470;50.034;15.256;2023-12-20T09:11:58;2.63;;;0.57;;
70102;SDS011;57470;50.034;15.256;2023-12-20T09:14:24;3.38;;;0.80;;
70102;SDS011;57470;50.034;15.256;2023-12-20T09:16:50;3.10;;;0.60;;
70102;SDS011;57470;50.034;15.256;2023-12-20T09:19:16;3.55;;;0.98;;
70102;SDS011;57470;50.034;15.256;2023-12-20T09:21:42;3.43;;;0.77;;
70102;SDS011;57470;50.034;15.256;2023-12-20T09:24:08;3.25;;;1.05;;
70102;SDS011;57470;50.034;15.256;2023-12-20T09:26:34;2.23;;;0.40;;
70102;SDS011;57470;50.034;15.256;2023-12-20T09:28:59;2.65;;;0.55;;
70102;SDS011;57470;50.034;15.256;2023-12-20T09:31:25;2.53;;;0.77;;
70102;SDS011;57470;50.034;15.256;2023-12-20T09:33:50;2.10;;;0.40;;
70102;SDS011;57470;50.034;15.256;2023-12-20T09:36:15;3.93;;;0.97;;
70102;SDS011;57470;50.034;15.256;2023-12-20T09:38:41;2.60;;;0.50;;
70102;SDS011;57470;50.034;15.256;2023-12-20T09:41:07;2.27;;;0.60;;
70102;SDS011;57470;50.034;15.256;2023-12-20T09:43:32;3.67;;;1.00;;
70102;SDS011;57470;50.034;15.256;2023-12-20T09:46:02;2.67;;;0.63;;
70102;SDS011;57470;50.034;15.256;2023-12-20T09:48:30;5.38;;;0.68;;
70102;SDS011;57470;50.034;15.256;2023-12-20T09:50:57;3.67;;;1.10;;
70102;SDS011;57470;50.034;15.256;2023-12-20T09:53:23;2.07;;;0.60;;
70102;SDS011;57470;50.034;15.256;2023-12-20T09:55:55;3.20;;;0.85;;
70102;SDS011;57470;50.034;15.256;2023-12-20T09:58:24;1.80;;;0.40;;
70102;SDS011;57470;50.034;15.256;2023-12-20T10:00:49;2.03;;;0.53;;
70102;SDS011;57470;50.034;15.256;2023-12-20T10:03:16;4.13;;;0.90;;
70102;SDS011;57470;50.034;15.256;2023-12-20T10:05:44;3.55;;;0.93;;
70102;SDS011;57470;50.034;15.256;2023-12-20T10:08:10;4.50;;;1.70;;
70102;SDS011;57470;50.034;15.256;2023-12-20T10:10:35;4.27;;;1.60;;
70102;SDS011;57470;50.034;15.256;2023-12-20T10:15:29;3.08;;;1.10;;
70102;SDS011;57470;50.034;15.256;2023-12-20T10:17:54;3.10;;;0.63;;
70102;SDS011;57470;50.034;15.256;2023-12-20T10:20:20;5.90;;;1.27;;
70102;SDS011;57470;50.034;15.256;2023-12-20T10:22:45;3.13;;;0.83;;
70102;SDS011;57470;50.034;15.256;2023-12-20T10:25:11;4.25;;;1.05;;
70102;SDS011;57470;50.034;15.256;2023-12-20T10:27:37;4.83;;;1.13;;
70102;SDS011;57470;50.034;15.256;2023-12-20T10:30:02;3.53;;;1.23;;
70102;SDS011;57470;50.034;15.256;2023-12-20T10:32:28;4.45;;;1.55;;
70102;SDS011;57470;50.034;15.256;2023-12-20T10:34:54;3.93;;;1.47;;
70102;SDS011;57470;50.034;15.256;2023-12-20T10:37:20;2.25;;;0.68;;
70102;SDS011;57470;50.034;15.256;2023-12-20T10:39:54;5.67;;;1.60;;
70102;SDS011;57470;50.034;15.256;2023-12-20T10:42:24;3.38;;;0.68;;
70102;SDS011;57470;50.034;15.256;2023-12-20T10:44:51;3.70;;;1.25;;
70102;SDS011;57470;50.034;15.256;2023-12-20T10:47:19;2.78;;;0.70;;
70102;SDS011;57470;50.034;15.256;2023-12-20T10:49:45;2.30;;;0.63;;
70102;SDS011;57470;50.034;15.256;2023-12-20T10:52:12;4.57;;;1.15;;
70102;SDS011;57470;50.034;15.256;2023-12-20T10:54:41;2.90;;;0.77;;
70102;SDS011;57470;50.034;15.256;2023-12-20T10:57:06;3.00;;;0.93;;
70102;SDS011;57470;50.034;15.256;2023-12-20T10:59:36;4.05;;;0.73;;
70102;SDS011;57470;50.034;15.256;2023-12-20T11:02:03;2.65;;;1.10;;
70102;SDS011;57470;50.034;15.256;2023-12-20T11:04:37;3.30;;;0.80;;
70102;SDS011;57470;50.034;15.256;2023-12-20T11:07:55;4.10;;;1.53;;
70102;SDS011;57470;50.034;15.256;2023-12-20T11:12:58;5.18;;;1.65;;
70102;SDS011;57470;50.034;15.256;2023-12-20T11:15:35;4.68;;;2.15;;
70102;SDS011;57470;50.034;15.256;2023-12-20T11:18:01;5.30;;;1.63;;
70102;SDS011;57470;50.034;15.256;2023-12-20T11:20:38;4.20;;;1.55;;
70102;SDS011;57470;50.034;15.256;2023-12-20T11:23:05;4.00;;;1.92;;
70102;SDS011;57470;50.034;15.256;2023-12-20T11:28:22;3.80;;;1.45;;
70102;SDS011;57470;50.034;15.256;2023-12-20T11:30:56;2.63;;;0.73;;
70102;SDS011;57470;50.034;15.256;2023-12-20T11:33:26;2.08;;;0.43;;
70102;SDS011;57470;50.034;15.256;2023-12-20T11:35:55;4.40;;;0.77;;
70102;SDS011;57470;50.034;15.256;2023-12-20T11:38:21;2.08;;;0.30;;
70102;SDS011;57470;50.034;15.256;2023-12-20T11:40:49;3.60;;;1.30;;
70102;SDS011;57470;50.034;15.256;2023-12-20T11:43:30;4.28;;;1.35;;
70102;SDS011;57470;50.034;15.256;2023-12-20T11:46:01;5.10;;;1.47;;
70102;SDS011;57470;50.034;15.256;2023-12-20T11:48:28;3.30;;;0.73;;
70102;SDS011;57470;50.034;15.256;2023-12-20T11:50:55;4.03;;;1.02;;
70102;SDS011;57470;50.034;15.256;2023-12-20T11:53:20;2.80;;;1.00;;
70102;SDS011;57470;50.034;15.256;2023-12-20T11:55:47;2.10;;;0.50;;
70102;SDS011;57470;50.034;15.256;2023-12-20T11:58:13;2.67;;;0.90;;
70102;SDS011;57470;50.034;15.256;2023-12-20T12:00:40;2.00;;;0.35;;
70102;SDS011;57470;50.034;15.256;2023-12-20T12:03:06;2.63;;;0.73;;
70102;SDS011;57470;50.034;15.256;2023-12-20T12:05:32;2.37;;;0.53;;
70102;SDS011;57470;50.034;15.256;2023-12-20T12:07:58;2.63;;;0.43;;
70102;SDS011;57470;50.034;15.256;2023-12-20T12:10:23;3.63;;;1.27;;
70102;SDS011;57470;50.034;15.256;2023-12-20T12:12:49;2.20;;;0.60;;
70102;SDS011;57470;50.034;15.256;2023-12-20T12:15:15;2.33;;;0.63;;
70102;SDS011;57470;50.034;15.256;2023-12-20T12:17:40;10.10;;;0.60;;
70102;SDS011;57470;50.034;15.256;2023-12-20T12:20:07;3.17;;;0.70;;
70102;SDS011;57470;50.034;15.256;2023-12-20T12:22:34;2.78;;;0.85;;
70102;SDS011;57470;50.034;15.256;2023-12-20T12:25:10;1.83;;;0.30;;
70102;SDS011;57470;50.034;15.256;2023-12-20T12:27:39;1.98;;;0.40;;
70102;SDS011;57470;50.034;15.256;2023-12-20T12:30:05;1.58;;;0.35;;
70102;SDS011;57470;50.034;15.256;2023-12-20T12:32:34;1.95;;;0.45;;
70102;SDS011;57470;50.034;15.256;2023-12-20T12:35:02;1.67;;;0.30;;
70102;SDS011;57470;50.034;15.256;2023-12-20T12:37:28;1.90;;;0.43;;
70102;SDS011;57470;50.034;15.256;2023-12-20T12:39:54;1.98;;;0.43;;
70102;SDS011;57470;50.034;15.256;2023-12-20T12:42:20;2.07;;;0.60;;
70102;SDS011;57470;50.034;15.256;2023-12-20T12:44:46;3.17;;;0.85;;
70102;SDS011;57470;50.034;15.256;2023-12-20T12:47:12;2.57;;;0.70;;
70102;SDS011;57470;50.034;15.256;2023-12-20T12:49:37;2.78;;;0.70;;
70102;SDS011;57470;50.034;15.256;2023-12-20T12:52:05;2.03;;;0.50;;
70102;SDS011;57470;50.034;15.256;2023-12-20T12:54:30;2.78;;;0.70;;
70102;SDS011;57470;50.034;15.256;2023-12-20T12:56:56;2.70;;;0.73;;
70102;SDS011;57470;50.034;15.256;2023-12-20T12:59:22;2.60;;;0.63;;
70102;SDS011;57470;50.034;15.256;2023-12-20T13:01:48;2.23;;;0.43;;
70102;SDS011;57470;50.034;15.256;2023-12-20T13:04:13;2.50;;;0.40;;
70102;SDS011;57470;50.034;15.256;2023-12-20T13:06:39;2.77;;;0.50;;
70102;SDS011;57470;50.034;15.256;2023-12-20T13:09:06;2.03;;;0.50;;
70102;SDS011;57470;50.034;15.256;2023-12-20T13:11:31;2.77;;;0.50;;
70102;SDS011;57470;50.034;15.256;2023-12-20T13:13:59;2.35;;;0.52;;
70102;SDS011;57470;50.034;15.256;2023-12-20T13:16:24;2.17;;;0.50;;
70102;SDS011;57470;50.034;15.256;2023-12-20T13:18:50;2.03;;;0.40;;
70102;SDS011;57470;50.034;15.256;2023-12-20T13:21:15;2.60;;;0.60;;
70102;SDS011;57470;50.034;15.256;2023-12-20T13:23:41;2.85;;;0.40;;
70102;SDS011;57470;50.034;15.256;2023-12-20T13:26:07;2.03;;;0.57;;
70102;SDS011;57470;50.034;15.256;2023-12-20T13:28:32;1.83;;;0.43;;
70102;SDS011;57470;50.034;15.256;2023-12-20T13:30:58;2.15;;;0.60;;
70102;SDS011;57470;50.034;15.256;2023-12-20T13:33:23;2.63;;;0.70;;
70102;SDS011;57470;50.034;15.256;2023-12-20T13:35:49;2.13;;;0.63;;
70102;SDS011;57470;50.034;15.256;2023-12-20T13:38:14;2.23;;;0.40;;
70102;SDS011;57470;50.034;15.256;2023-12-20T13:40:40;3.55;;;1.15;;
70102;SDS011;57470;50.034;15.256;2023-12-20T13:43:05;3.70;;;1.03;;
70102;SDS011;57470;50.034;15.256;2023-12-20T13:45:31;3.07;;;0.93;;
70102;SDS011;57470;50.034;15.256;2023-12-20T13:47:56;2.97;;;0.77;;
70102;SDS011;57470;50.034;15.256;2023-12-20T13:50:22;2.20;;;0.50;;
70102;SDS011;57470;50.034;15.256;2023-12-20T13:52:47;2.07;;;0.50;;
70102;SDS011;57470;50.034;15.256;2023-12-20T13:55:13;2.67;;;0.90;;
70102;SDS011;57470;50.034;15.256;2023-12-20T13:57:38;2.67;;;0.60;;
70102;SDS011;57470;50.034;15.256;2023-12-20T14:00:05;6.88;;;0.80;;
70102;SDS011;57470;50.034;15.256;2023-12-20T14:02:31;2.50;;;0.80;;
70102;SDS011;57470;50.034;15.256;2023-12-20T14:04:56;4.17;;;1.40;;
70102;SDS011;57470;50.034;15.256;2023-12-20T14:07:21;11.40;;;3.07;;
70102;SDS011;57470;50.034;15.256;2023-12-20T14:09:47;10.53;;;4.10;;
70102;SDS011;57470;50.034;15.256;2023-12-20T14:12:13;8.05;;;3.33;;
70102;SDS011;57470;50.034;15.256;2023-12-20T14:14:39;6.07;;;2.00;;
70102;SDS011;57470;50.034;15.256;2023-12-20T14:17:04;4.85;;;1.33;;
70102;SDS011;57470;50.034;15.256;2023-12-20T14:19:33;3.47;;;0.70;;
70102;SDS011;57470;50.034;15.256;2023-12-20T14:21:58;3.17;;;1.02;;
70102;SDS011;57470;50.034;15.256;2023-12-20T14:24:27;3.03;;;0.77;;
70102;SDS011;57470;50.034;15.256;2023-12-20T14:26:53;2.60;;;0.60;;
70102;SDS011;57470;50.034;15.256;2023-12-20T14:29:18;2.00;;;0.40;;
70102;SDS011;57470;50.034;15.256;2023-12-20T14:31:44;3.03;;;0.57;;
70102;SDS011;57470;50.034;15.256;2023-12-20T14:34:10;2.63;;;0.60;;